VMMC Airport Information

Runway Information
Runway 16 Length 10544 ft width 148 ft
Elevation 20 ft Threshold 1195 ft Heading 160
Runway 34 Length 10544 ft Width 148 ft
Elevation 20 ft Threshold 1215 ft Heading 340
Airport Frequencies
Type APP Name HONG KONG Frequency 126.3 MHZ
Type ATIS Name ATIS Frequency 126.4 MHZ
Type GND Name GND Frequency 121.725 MHZ
Type TWR Name TWR Frequency 118 MHZ
Airport Navaids
Type VOR-DME Name Macau Frequency 116400 KHZ
Type VOR Name Jiuzhou Frequency 117200 KHZ
Airport Weather Information & NOTAM
ADDS - METARS form results

(2116 UTC 23 February 2019)
Data provider http://aviationweather.gov/metar/data/
 
METAR text: VMMC 232100Z 36017KT 6000 -RA FEW008 SCT020 13/12 Q1016 NOSIG
Conditions at: VMMC (MACAO/MACAU , MO) observed 2100 UTC 23 February 2019
Temperature: 13.0°C (55°F)
Dewpoint: 12.0°C (54°F) [RH = 94%]
Pressure (altimeter): 30.00 inches Hg (1016.0 mb)
Winds: from the N (360 degrees) at 20 MPH (17 knots; 8.7 m/s)
Visibility: 4 miles ( 6 km)
Ceiling: at least 12,000 feet AGL
Clouds: few clouds at 800 feet AGL
scattered clouds at 2000 feet AGL
Weather: -RA  (light rain)

METAR text: VMMC 232030Z 35018KT 6000 -RA FEW008 SCT020 13/12 Q1016 TEMPO 4000 -RA BR
Conditions at: VMMC (MACAO/MACAU , MO) observed 2030 UTC 23 February 2019
Temperature: 13.0°C (55°F)
Dewpoint: 12.0°C (54°F) [RH = 94%]
Pressure (altimeter): 30.00 inches Hg (1016.0 mb)
Winds: from the N (350 degrees) at 21 MPH (18 knots; 9.3 m/s)
Visibility: 4 miles ( 6 km)
Ceiling: at least 12,000 feet AGL
Clouds: few clouds at 800 feet AGL
scattered clouds at 2000 feet AGL
Weather: -RA  (light rain)

Forecast for: VMMC (MACAO/MACAU , MO)
Text: TAF VMMC 231700Z 2318/2424 02015KT 9000 FEW008 SCT020
Forecast period: 1800 UTC 23 February 2019 to 0000 UTC 25 February 2019
Forecast type: FROM: standard forecast or significant change
Winds: from the NNE (20 degrees) at 17 MPH (15 knots; 7.7 m/s)
Visibility: 6 miles (9 km)
Ceiling: at least 12,000 feet AGL
Clouds: few clouds at 800 feet AGL
scattered clouds at 2000 feet AGL
Weather: no significant weather forecast for this period
Text: TEMPO 2318/2324 3500 -RA BR
Forecast period: 1800 UTC 23 February 2019 to 0000 UTC 24 February 2019
Forecast type: TEMPORARY: The following changes expected for less than half the time period
Visibility: 2.17 miles (3.49 km)
Ceiling: unknown
Clouds: missing
Weather: -RA BR  (light rain, mist)